• Join FlightAware (Why Join?)
  • Login
  • US Flag 
02:09AM EST


 

Airport Tracker/Info


-or-


 

Live Flight TrackerFlight Track Log ✈ N588AC ✈ 12-Apr-2013 ✈ KBCB - KMCO

Flight Track Log - Related Links

Times and Time Zones

All times are in EDT time to prevent confusion due to time zone crossing. See the N588AC flight status page for this flight to view local times or setup timezone preferences in your user account.

Time Position Orientation Groundspeed Altitude Reporting Facility
EDT Latitude Longitude Course Direction KTS MPH feet Rate Location/Type
07:18AM 36.8987 -80.7268 185° South  Level FlightAware Approximate
07:18AM 37.1569 -80.5206 186° South 332 382 8,500  Level Atlanta Center
07:19AM 36.8071 -80.7333 180° South  Level FlightAware Approximate
07:20AM 36.7168 -80.7528 188° South  Level FlightAware Approximate
07:20AM 37.1167 -80.6447 248° West 224 258 12,500  Level Atlanta Center
07:21AM 36.6257 -80.7667 180° South  Level FlightAware Approximate
07:21AM 37.0850 -80.7086 238° Southwest 201 231 14,300  Level Atlanta Center
07:22AM 36.5341 -80.7707 186° South  Level FlightAware Approximate
07:22AM 37.0250 -80.7242 192° South 196 226 15,900  Level Atlanta Center
07:23AM 36.4427 -80.7822 186° South  Level FlightAware Approximate
07:23AM 36.9603 -80.7217 178° South 205 236 17,400  Level Atlanta Center
07:24AM 36.9000 -80.7319 188° South 217 250 19,000 1,620 Climbing Atlanta Center
07:25AM 36.8375 -80.7372 184° South 237 273 20,700 1,800 Climbing Atlanta Center
07:26AM 36.7692 -80.7528 190° South 243 280 22,600 1,800 Climbing Atlanta Center
07:27AM 36.6919 -80.7483 177° South 248 285 24,300 1,620 Climbing Atlanta Center
07:28AM 36.6214 -80.7589 187° South 254 292 25,900 1,800 Climbing Atlanta Center
07:29AM 36.5553 -80.7825 196° South 259 298 27,900 1,380 Climbing Atlanta Center
07:30AM 36.4831 -80.8111 198° South 259 298 28,700 1,020 Climbing Atlanta Center
07:31AM 36.4131 -80.8450 201° Southwest 266 306 30,000 1,260 Climbing Atlanta Center
07:32AM 36.3386 -80.8761 199° South 275 316 31,300 1,320 Climbing Atlanta Center
07:33AM 36.2708 -80.9150 205° Southwest 275 316 32,700 1,320 Climbing Atlanta Center
07:34AM 36.1961 -80.9281 188° South 269 310 34,000 1,140 Climbing Atlanta Center
07:35AM 36.1189 -80.9286 180° South 274 315 35,000 1,140 Climbing Atlanta Center
07:36AM 36.0419 -80.9392 186° South 274 315 36,300 1,200 Climbing Atlanta Center
07:37AM 35.9756 -80.9494 187° South 274 315 37,400 780 Climbing Atlanta Center
07:38AM 35.8964 -80.9525 182° South 274 315 37,900 300 Climbing Atlanta Center
07:39AM 35.8131 -80.9581 183° South 288 331 38,000 60 Climbing Atlanta Center
07:40AM 35.7194 -80.9642 183° South 323 372 38,100  Climbing Atlanta Center
07:41AM 35.6131 -80.9631 180° South 345 397 38,000 -60 Descending Atlanta Center
07:42AM 35.5153 -80.9769 187° South 359 413 38,000  Level Atlanta Center
07:43AM 35.4194 -80.9856 184° South 353 406 38,000  Level Atlanta Center
07:44AM 35.3217 -80.9919 183° South 353 406 38,000  Level Atlanta Center
07:45AM 35.2258 -81.0006 184° South 342 394 38,000  Level Atlanta Center
07:46AM 35.1300 -81.0092 184° South 349 402 38,000  Level Atlanta Center
07:47AM 35.0425 -81.0147 183° South 349 402 38,000  Level Atlanta Center
07:49AM 34.8156 -81.0289 183° South 356 410 38,000  Level Jacksonville Center
07:50AM 34.7197 -81.0361 184° South 351 404 38,000  Level Jacksonville Center
07:51AM 34.6303 -81.0456 185° South 345 397 38,000  Level Jacksonville Center
07:52AM 34.5322 -81.0503 182° South 350 403 38,000  Level Jacksonville Center
07:53AM 34.4364 -81.0547 182° South 350 403 38,000  Level Jacksonville Center
07:54AM 34.3386 -81.0619 183° South 350 403 38,000  Level Jacksonville Center
07:55AM 34.2489 -81.0664 182° South 338 389 38,000  Level Jacksonville Center
07:56AM 34.1489 -81.0708 182° South 349 402 38,000  Level Jacksonville Center
07:57AM 34.0508 -81.0778 183° South 354 407 38,000  Level Jacksonville Center
07:58AM 33.9486 -81.0825 182° South 360 414 38,000  Level Jacksonville Center
07:59AM 33.8444 -81.0897 183° South 365 420 38,000  Level Jacksonville Center
08:00AM 33.7381 -81.1019 185° South 365 420 38,000  Level Jacksonville Center
08:01AM 33.6403 -81.1089 183° South 365 420 38,000  Level Jacksonville Center
08:02AM 33.5400 -81.1133 182° South 365 420 38,000  Level Jacksonville Center
08:03AM 33.4400 -81.1203 183° South 365 420 38,000  Level Jacksonville Center
08:04AM 33.3419 -81.1247 182° South 365 420 38,000  Level Jacksonville Center
08:05AM 33.2439 -81.1342 185° South 365 420 38,000  Level Jacksonville Center
08:06AM 33.1458 -81.1386 182° South 365 420 38,000  Level Jacksonville Center
08:07AM 33.0458 -81.1456 183° South 365 420 38,000  Level Jacksonville Center
08:08AM 32.9478 -81.1500 182° South 365 420 38,000  Level Jacksonville Center
08:09AM 32.8497 -81.1567 183° South 365 420 38,000  Level Jacksonville Center
08:10AM 32.7475 -81.1636 183° South 365 420 38,000  Level Jacksonville Center
08:11AM 32.6517 -81.1703 183° South 357 411 38,000  Level Jacksonville Center
08:12AM 32.5558 -81.1772 183° South 347 399 38,100  Climbing Jacksonville Center
08:13AM 32.4661 -81.1836 183° South 352 405 38,000 -60 Descending Jacksonville Center
08:14AM 32.3556 -81.1883 182° South 353 406 38,000  Level Jacksonville Center
08:15AM 32.2575 -81.1925 182° South 353 406 38,000  Level Jacksonville Center
08:16AM 32.1636 -81.2017 185° South 352 405 38,000  Level Jacksonville Center
08:17AM 32.0872 -81.2569 212° Southwest 324 373 38,000  Level Jacksonville Center
08:18AM 32.0211 -81.3194 219° Southwest 315 362 38,000  Level Jacksonville Center
08:19AM 31.9592 -81.3817 220° Southwest 317 365 38,000  Level Jacksonville Center
08:20AM 31.8678 -81.4150 197° South 317 365 38,000  Level Jacksonville Center
08:21AM 31.7694 -81.4092 177° South 341 392 38,100  Climbing Jacksonville Center
08:22AM 31.6797 -81.3986 174° South 353 406 38,100  Level Jacksonville Center
08:23AM 31.5708 -81.3831 173° South 364 419 38,100  Level Jacksonville Center
08:24AM 31.4831 -81.3725 174° South 369 425 38,100  Level Jacksonville Center
08:25AM 31.3742 -81.3572 173° South 364 419 38,100 -420 Level Jacksonville Center
08:26AM 31.2761 -81.3514 177° South 364 419 37,300 -900 Descending Jacksonville Center
08:27AM 31.1778 -81.3386 174° South 356 410 36,300 -960 Descending Jacksonville Center
08:28AM 31.0753 -81.3256 174° South 363 418 35,400 -840 Descending Jacksonville Center
08:29AM 30.9814 -81.3225 178° South 363 418 34,700 -840 Descending Jacksonville Center
08:30AM 30.8811 -81.3167 177° South 358 412 33,800 -960 Descending Jacksonville Center
08:31AM 30.7850 -81.3161 180° South 358 412 32,800 -900 Descending Jacksonville Center
08:32AM 30.6825 -81.2983 172° South 365 420 32,000 -420 Descending Jacksonville Center
08:33AM 30.5822 -81.2856 174° South 365 420 32,000  Level Jacksonville Center
08:34AM 30.4817 -81.2728 174° South 365 420 32,000  Level Jacksonville Center
08:35AM 30.3792 -81.2575 173° South 370 426 32,000  Level Jacksonville Center
08:36AM 30.2767 -81.2450 174° South 370 426 32,000  Level Jacksonville Center
08:37AM 30.1722 -81.2275 172° South 370 426 32,000  Level Jacksonville Center
08:38AM 30.0675 -81.2172 175° South 370 426 32,000 -600 Level Jacksonville Center
08:39AM 29.9631 -81.2025 173° South 375 432 30,900 -1,200 Descending Jacksonville Center
08:40AM 29.8522 -81.1875 173° South 387 445 29,700 -1,380 Descending Jacksonville Center
08:41AM 29.7456 -81.1728 173° South 394 453 28,200 -1,680 Descending Jacksonville Center
08:42AM 29.6411 -81.1600 174° South 386 444 26,400 -1,980 Descending Jacksonville Center
08:43AM 29.5322 -81.1478 174° South 386 444 24,300 -2,100 Descending Jacksonville Center
08:44AM 29.4381 -81.1350 173° South 386 444 22,300 -2,280 Descending Jacksonville Center
08:45AM 29.3314 -81.1228 174° South 386 444 19,800 -2,940 Descending Jacksonville Center
08:46AM 29.2333 -81.1150 176° South 381 438 16,500 -3,540 Descending Jacksonville Center
08:47AM 29.1433 -81.1022 173° South 351 404 12,800 -2,340 Descending Jacksonville Center
08:48AM 29.0639 -81.0942 175° South 318 366 11,900 -480 Descending Jacksonville Center
08:49AM 28.9825 -81.0911 178° South 299 344 11,900 -300 Level Jacksonville Center
08:50AM 28.9011 -81.0831 175° South 292 336 11,400 -780 Descending Jacksonville Center
08:50AM 28.8500 -81.0833 180° South 264 304 10,800 -1,380 Descending Orlando TRACON
08:51AM 28.8000 -81.0833 180° South 226 260 9,500 -1,440 Descending Orlando TRACON
08:52AM 28.7667 -81.1333 233° Southwest 203 234 8,000 -1,440 Descending Orlando TRACON
08:53AM 28.7333 -81.2000 240° Southwest 214 246 6,600 -1,560 Descending Orlando TRACON
08:54AM 28.6833 -81.2500 221° Southwest 205 236 4,900 -1,800 Descending Orlando TRACON
08:55AM 28.6667 -81.3000 249° West 195 224 3,100 -960 Descending Orlando TRACON
08:56AM 28.6167 -81.3333 210° Southwest 136 157 3,000 -240 Descending Orlando TRACON
08:57AM 28.5833 -81.3333 180° South 141 162 2,700 -480 Descending Orlando TRACON
08:58AM 28.5500 -81.3333 180° South 107 123 2,100 -600 Descending Orlando TRACON
08:59AM 28.5167 -81.3333 180° South 106 122 1,500 -600 Descending Orlando TRACON
09:00AM 28.5000 -81.3333 180° South 105 121 1,000 -600 Descending Orlando TRACON
09:01AM 28.4667 -81.3333 180° South 111 128 400 -600 Descending Orlando TRACON
09:03AM 28.4294 -81.3090 230° Southwest  Level Estimated
09:10AM 28.4294 -81.3090 230° Southwest  Level Estimated
09:11AM 28.4294 -81.3090 230° Southwest  Level Estimated
09:12AM 28.4294 -81.3090 230° Southwest  Level Estimated
09:13AM 28.4294 -81.3090 230° Southwest  Level Estimated